sensor_id;sensor_type;location;lat;lon;timestamp;P1;durP1;ratioP1;P2;durP2;ratioP2
5971;SDS011;3012;49.944;8.454;2024-03-23T00:54:44;10.80;;;9.70;;
5971;SDS011;3012;49.944;8.454;2024-03-23T00:57:11;11.15;;;9.95;;
5971;SDS011;3012;49.944;8.454;2024-03-23T01:11:42;22.27;;;13.57;;
5971;SDS011;3012;49.944;8.454;2024-03-23T01:14:12;13.93;;;11.48;;
5971;SDS011;3012;49.944;8.454;2024-03-23T01:17:52;20.42;;;11.65;;
5971;SDS011;3012;49.944;8.454;2024-03-23T01:23:25;16.38;;;11.98;;
5971;SDS011;3012;49.944;8.454;2024-03-23T01:25:55;16.25;;;12.43;;
5971;SDS011;3012;49.944;8.454;2024-03-23T01:35:59;15.45;;;12.40;;
5971;SDS011;3012;49.944;8.454;2024-03-23T01:38:26;20.80;;;12.45;;
5971;SDS011;3012;49.944;8.454;2024-03-23T01:40:57;17.85;;;11.93;;
5971;SDS011;3012;49.944;8.454;2024-03-23T01:43:24;15.68;;;11.88;;
5971;SDS011;3012;49.944;8.454;2024-03-23T01:45:53;18.40;;;11.93;;
5971;SDS011;3012;49.944;8.454;2024-03-23T01:48:21;23.65;;;13.40;;
5971;SDS011;3012;49.944;8.454;2024-03-23T01:51:04;19.67;;;12.43;;
5971;SDS011;3012;49.944;8.454;2024-03-23T01:53:34;18.73;;;13.02;;
5971;SDS011;3012;49.944;8.454;2024-03-23T01:56:17;18.13;;;12.88;;
5971;SDS011;3012;49.944;8.454;2024-03-23T01:58:59;21.23;;;12.95;;
5971;SDS011;3012;49.944;8.454;2024-03-23T02:01:58;26.27;;;13.98;;
5971;SDS011;3012;49.944;8.454;2024-03-23T02:04:28;17.35;;;12.27;;
5971;SDS011;3012;49.944;8.454;2024-03-23T02:06:56;19.42;;;13.77;;
5971;SDS011;3012;49.944;8.454;2024-03-23T02:09:23;20.00;;;13.68;;
5971;SDS011;3012;49.944;8.454;2024-03-23T02:11:50;20.30;;;13.55;;
5971;SDS011;3012;49.944;8.454;2024-03-23T02:14:17;21.20;;;13.55;;
5971;SDS011;3012;49.944;8.454;2024-03-23T02:16:46;16.80;;;12.68;;
5971;SDS011;3012;49.944;8.454;2024-03-23T02:19:17;17.98;;;11.85;;
5971;SDS011;3012;49.944;8.454;2024-03-23T02:21:49;15.77;;;12.73;;
5971;SDS011;3012;49.944;8.454;2024-03-23T02:28:29;17.70;;;12.68;;
5971;SDS011;3012;49.944;8.454;2024-03-23T02:30:57;18.40;;;12.55;;
5971;SDS011;3012;49.944;8.454;2024-03-23T02:33:26;15.50;;;11.77;;
5971;SDS011;3012;49.944;8.454;2024-03-23T02:35:55;16.10;;;12.43;;
5971;SDS011;3012;49.944;8.454;2024-03-23T02:38:25;17.45;;;12.30;;
5971;SDS011;3012;49.944;8.454;2024-03-23T02:41:58;16.08;;;12.55;;
5971;SDS011;3012;49.944;8.454;2024-03-23T02:44:29;17.60;;;12.88;;
5971;SDS011;3012;49.944;8.454;2024-03-23T02:46:57;13.18;;;11.00;;
5971;SDS011;3012;49.944;8.454;2024-03-23T02:49:29;19.40;;;12.45;;
5971;SDS011;3012;49.944;8.454;2024-03-23T02:52:03;15.70;;;11.70;;
5971;SDS011;3012;49.944;8.454;2024-03-23T02:54:47;14.80;;;12.57;;
5971;SDS011;3012;49.944;8.454;2024-03-23T02:57:19;16.10;;;12.82;;
5971;SDS011;3012;49.944;8.454;2024-03-23T03:00:28;16.02;;;12.00;;
5971;SDS011;3012;49.944;8.454;2024-03-23T03:02:56;19.20;;;12.75;;
5971;SDS011;3012;49.944;8.454;2024-03-23T03:05:24;17.05;;;12.90;;
5971;SDS011;3012;49.944;8.454;2024-03-23T03:07:57;17.08;;;12.27;;
5971;SDS011;3012;49.944;8.454;2024-03-23T03:10:56;19.05;;;13.68;;
5971;SDS011;3012;49.944;8.454;2024-03-23T03:13:23;34.55;;;14.48;;
5971;SDS011;3012;49.944;8.454;2024-03-23T03:15:52;18.40;;;13.57;;
5971;SDS011;3012;49.944;8.454;2024-03-23T03:18:19;22.75;;;14.20;;
5971;SDS011;3012;49.944;8.454;2024-03-23T03:20:53;18.92;;;13.98;;
5971;SDS011;3012;49.944;8.454;2024-03-23T03:23:26;20.15;;;13.32;;
5971;SDS011;3012;49.944;8.454;2024-03-23T03:25:52;16.98;;;12.68;;
5971;SDS011;3012;49.944;8.454;2024-03-23T03:31:57;17.80;;;14.60;;
5971;SDS011;3012;49.944;8.454;2024-03-23T03:34:24;19.55;;;14.95;;
5971;SDS011;3012;49.944;8.454;2024-03-23T03:36:52;19.60;;;14.68;;
5971;SDS011;3012;49.944;8.454;2024-03-23T03:39:24;22.42;;;15.20;;
5971;SDS011;3012;49.944;8.454;2024-03-23T03:42:23;21.00;;;15.80;;
5971;SDS011;3012;49.944;8.454;2024-03-23T03:44:54;18.33;;;14.18;;
5971;SDS011;3012;49.944;8.454;2024-03-23T03:47:52;20.67;;;14.77;;
5971;SDS011;3012;49.944;8.454;2024-03-23T03:50:19;21.42;;;15.35;;
5971;SDS011;3012;49.944;8.454;2024-03-23T03:52:57;24.67;;;15.63;;
5971;SDS011;3012;49.944;8.454;2024-03-23T03:55:24;17.90;;;13.18;;
5971;SDS011;3012;49.944;8.454;2024-03-23T03:57:51;23.65;;;15.00;;
5971;SDS011;3012;49.944;8.454;2024-03-23T04:00:19;18.58;;;14.02;;
5971;SDS011;3012;49.944;8.454;2024-03-23T04:02:46;19.75;;;14.25;;
5971;SDS011;3012;49.944;8.454;2024-03-23T04:05:15;19.63;;;14.25;;
5971;SDS011;3012;49.944;8.454;2024-03-23T04:07:43;19.55;;;14.68;;
5971;SDS011;3012;49.944;8.454;2024-03-23T04:13:58;20.52;;;14.90;;
5971;SDS011;3012;49.944;8.454;2024-03-23T04:16:29;22.85;;;15.63;;
5971;SDS011;3012;49.944;8.454;2024-03-23T04:19:00;24.20;;;15.95;;
5971;SDS011;3012;49.944;8.454;2024-03-23T04:24:26;21.13;;;14.52;;
5971;SDS011;3012;49.944;8.454;2024-03-23T04:27:05;9.82;;;7.13;;
5971;SDS011;3012;49.944;8.454;2024-03-23T04:29:31;4.95;;;4.53;;
5971;SDS011;3012;49.944;8.454;2024-03-23T04:31:58;4.72;;;4.30;;
5971;SDS011;3012;49.944;8.454;2024-03-23T04:34:29;4.35;;;3.13;;
5971;SDS011;3012;49.944;8.454;2024-03-23T04:36:58;2.47;;;2.33;;
5971;SDS011;3012;49.944;8.454;2024-03-23T04:40:16;1.10;;;1.10;;
5971;SDS011;3012;49.944;8.454;2024-03-23T04:42:44;1.27;;;1.10;;
5971;SDS011;3012;49.944;8.454;2024-03-23T04:45:12;1.40;;;1.30;;
5971;SDS011;3012;49.944;8.454;2024-03-23T04:48:00;1.20;;;1.10;;
5971;SDS011;3012;49.944;8.454;2024-03-23T04:50:27;1.33;;;1.23;;
5971;SDS011;3012;49.944;8.454;2024-03-23T04:52:55;0.73;;;0.73;;
5971;SDS011;3012;49.944;8.454;2024-03-23T04:55:26;0.70;;;0.68;;
5971;SDS011;3012;49.944;8.454;2024-03-23T04:58:19;0.87;;;0.87;;
5971;SDS011;3012;49.944;8.454;2024-03-23T05:00:47;0.80;;;0.80;;
5971;SDS011;3012;49.944;8.454;2024-03-23T05:03:14;0.73;;;0.73;;
5971;SDS011;3012;49.944;8.454;2024-03-23T05:05:43;1.17;;;0.70;;
5971;SDS011;3012;49.944;8.454;2024-03-23T05:08:10;0.63;;;0.60;;
5971;SDS011;3012;49.944;8.454;2024-03-23T05:10:40;0.60;;;0.60;;
5971;SDS011;3012;49.944;8.454;2024-03-23T05:13:13;0.57;;;0.57;;
5971;SDS011;3012;49.944;8.454;2024-03-23T05:15:50;1.90;;;0.60;;
5971;SDS011;3012;49.944;8.454;2024-03-23T05:18:18;0.70;;;0.70;;
5971;SDS011;3012;49.944;8.454;2024-03-23T05:20:47;0.43;;;0.43;;
5971;SDS011;3012;49.944;8.454;2024-03-23T05:23:31;0.93;;;0.70;;
5971;SDS011;3012;49.944;8.454;2024-03-23T05:29:27;0.83;;;0.83;;
5971;SDS011;3012;49.944;8.454;2024-03-23T05:31:54;0.38;;;0.38;;
5971;SDS011;3012;49.944;8.454;2024-03-23T05:34:23;2.22;;;1.50;;
5971;SDS011;3012;49.944;8.454;2024-03-23T05:37:24;1.38;;;1.10;;
5971;SDS011;3012;49.944;8.454;2024-03-23T05:39:54;1.55;;;1.55;;
5971;SDS011;3012;49.944;8.454;2024-03-23T05:42:23;1.75;;;1.70;;
5971;SDS011;3012;49.944;8.454;2024-03-23T05:44:52;1.55;;;1.45;;
5971;SDS011;3012;49.944;8.454;2024-03-23T05:47:22;2.13;;;1.87;;
5971;SDS011;3012;49.944;8.454;2024-03-23T05:50:11;2.10;;;2.00;;
5971;SDS011;3012;49.944;8.454;2024-03-23T05:52:43;1.77;;;1.70;;
5971;SDS011;3012;49.944;8.454;2024-03-23T05:55:16;2.63;;;1.63;;
5971;SDS011;3012;49.944;8.454;2024-03-23T05:57:48;1.53;;;1.53;;
5971;SDS011;3012;49.944;8.454;2024-03-23T06:00:15;1.60;;;1.60;;
5971;SDS011;3012;49.944;8.454;2024-03-23T06:02:43;2.23;;;1.17;;
5971;SDS011;3012;49.944;8.454;2024-03-23T06:05:10;1.00;;;1.00;;
5971;SDS011;3012;49.944;8.454;2024-03-23T06:08:33;1.00;;;1.00;;
5971;SDS011;3012;49.944;8.454;2024-03-23T06:11:01;0.80;;;0.80;;
5971;SDS011;3012;49.944;8.454;2024-03-23T06:13:30;1.13;;;0.67;;
5971;SDS011;3012;49.944;8.454;2024-03-23T06:16:05;0.80;;;0.80;;
5971;SDS011;3012;49.944;8.454;2024-03-23T06:18:32;1.27;;;1.03;;
5971;SDS011;3012;49.944;8.454;2024-03-23T06:20:59;5.60;;;0.93;;
5971;SDS011;3012;49.944;8.454;2024-03-23T06:23:51;0.83;;;0.83;;
5971;SDS011;3012;49.944;8.454;2024-03-23T06:26:18;1.17;;;0.70;;
5971;SDS011;3012;49.944;8.454;2024-03-23T06:28:46;0.40;;;0.40;;
5971;SDS011;3012;49.944;8.454;2024-03-23T06:31:14;0.30;;;0.30;;
5971;SDS011;3012;49.944;8.454;2024-03-23T06:33:43;0.30;;;0.30;;
5971;SDS011;3012;49.944;8.454;2024-03-23T06:36:11;0.40;;;0.40;;
5971;SDS011;3012;49.944;8.454;2024-03-23T06:38:44;2.00;;;0.40;;
5971;SDS011;3012;49.944;8.454;2024-03-23T06:41:51;51.17;;;26.43;;
5971;SDS011;3012;49.944;8.454;2024-03-23T06:44:24;0.70;;;0.30;;
5971;SDS011;3012;49.944;8.454;2024-03-23T06:47:10;0.10;;;0.10;;
5971;SDS011;3012;49.944;8.454;2024-03-23T06:49:40;0.10;;;0.10;;
5971;SDS011;3012;49.944;8.454;2024-03-23T06:52:16;0.73;;;0.30;;
5971;SDS011;3012;49.944;8.454;2024-03-23T06:54:53;0.20;;;0.20;;
5971;SDS011;3012;49.944;8.454;2024-03-23T06:57:24;1.40;;;0.40;;
5971;SDS011;3012;49.944;8.454;2024-03-23T06:59:53;0.30;;;0.30;;
5971;SDS011;3012;49.944;8.454;2024-03-23T07:02:20;0.97;;;0.23;;
5971;SDS011;3012;49.944;8.454;2024-03-23T07:04:47;0.50;;;0.50;;
5971;SDS011;3012;49.944;8.454;2024-03-23T07:07:13;1.60;;;0.23;;
5971;SDS011;3012;49.944;8.454;2024-03-23T07:09:41;0.63;;;0.57;;
5971;SDS011;3012;49.944;8.454;2024-03-23T07:12:07;2.05;;;0.20;;
5971;SDS011;3012;49.944;8.454;2024-03-23T07:14:35;1.93;;;0.40;;
5971;SDS011;3012;49.944;8.454;2024-03-23T07:17:23;2.05;;;0.43;;
5971;SDS011;3012;49.944;8.454;2024-03-23T07:19:54;0.73;;;0.37;;
5971;SDS011;3012;49.944;8.454;2024-03-23T07:22:21;2.93;;;0.40;;
5971;SDS011;3012;49.944;8.454;2024-03-23T07:24:50;2.10;;;0.80;;
5971;SDS011;3012;49.944;8.454;2024-03-23T07:28:11;2.60;;;0.70;;
5971;SDS011;3012;49.944;8.454;2024-03-23T07:30:38;0.57;;;0.57;;
5971;SDS011;3012;49.944;8.454;2024-03-23T07:33:23;4.57;;;0.80;;
5971;SDS011;3012;49.944;8.454;2024-03-23T07:35:50;2.40;;;0.50;;
5971;SDS011;3012;49.944;8.454;2024-03-23T07:38:16;2.60;;;0.70;;
5971;SDS011;3012;49.944;8.454;2024-03-23T07:40:44;2.50;;;1.00;;
5971;SDS011;3012;49.944;8.454;2024-03-23T07:43:10;1.57;;;0.60;;
5971;SDS011;3012;49.944;8.454;2024-03-23T07:45:38;2.63;;;1.25;;
5971;SDS011;3012;49.944;8.454;2024-03-23T07:48:06;3.88;;;1.17;;
5971;SDS011;3012;49.944;8.454;2024-03-23T07:50:37;2.80;;;1.30;;
5971;SDS011;3012;49.944;8.454;2024-03-23T07:53:07;2.58;;;1.30;;
5971;SDS011;3012;49.944;8.454;2024-03-23T07:55:38;4.13;;;1.38;;
5971;SDS011;3012;49.944;8.454;2024-03-23T07:58:06;4.55;;;1.80;;
5971;SDS011;3012;49.944;8.454;2024-03-23T08:00:38;7.68;;;2.13;;
5971;SDS011;3012;49.944;8.454;2024-03-23T08:03:09;3.50;;;2.00;;
5971;SDS011;3012;49.944;8.454;2024-03-23T08:05:36;5.35;;;2.00;;
5971;SDS011;3012;49.944;8.454;2024-03-23T08:08:07;3.78;;;2.13;;
5971;SDS011;3012;49.944;8.454;2024-03-23T08:10:33;3.28;;;2.20;;
5971;SDS011;3012;49.944;8.454;2024-03-23T08:13:03;4.67;;;3.00;;
5971;SDS011;3012;49.944;8.454;2024-03-23T08:15:31;5.97;;;2.28;;
5971;SDS011;3012;49.944;8.454;2024-03-23T08:17:59;4.47;;;2.13;;
5971;SDS011;3012;49.944;8.454;2024-03-23T08:20:26;3.15;;;1.92;;
5971;SDS011;3012;49.944;8.454;2024-03-23T08:22:56;9.05;;;2.67;;
5971;SDS011;3012;49.944;8.454;2024-03-23T08:25:31;5.22;;;2.50;;
5971;SDS011;3012;49.944;8.454;2024-03-23T08:27:58;3.33;;;2.17;;
5971;SDS011;3012;49.944;8.454;2024-03-23T08:30:28;5.78;;;1.88;;
5971;SDS011;3012;49.944;8.454;2024-03-23T08:33:06;4.32;;;3.33;;
5971;SDS011;3012;49.944;8.454;2024-03-23T08:36:31;4.38;;;2.65;;
5971;SDS011;3012;49.944;8.454;2024-03-23T08:42:35;6.57;;;2.70;;
5971;SDS011;3012;49.944;8.454;2024-03-23T08:45:03;7.57;;;2.42;;
5971;SDS011;3012;49.944;8.454;2024-03-23T08:47:34;7.45;;;2.33;;
5971;SDS011;3012;49.944;8.454;2024-03-23T08:50:24;5.47;;;1.90;;
5971;SDS011;3012;49.944;8.454;2024-03-23T08:52:54;7.40;;;2.70;;
5971;SDS011;3012;49.944;8.454;2024-03-23T08:55:23;5.88;;;2.35;;
5971;SDS011;3012;49.944;8.454;2024-03-23T09:01:32;7.78;;;2.17;;
5971;SDS011;3012;49.944;8.454;2024-03-23T09:03:58;9.43;;;2.83;;
5971;SDS011;3012;49.944;8.454;2024-03-23T09:06:27;6.10;;;2.67;;
5971;SDS011;3012;49.944;8.454;2024-03-23T09:08:54;4.22;;;2.45;;
5971;SDS011;3012;49.944;8.454;2024-03-23T09:11:22;8.90;;;2.78;;
5971;SDS011;3012;49.944;8.454;2024-03-23T09:20:00;5.95;;;3.17;;
5971;SDS011;3012;49.944;8.454;2024-03-23T09:22:27;6.43;;;2.47;;
5971;SDS011;3012;49.944;8.454;2024-03-23T09:24:56;11.50;;;2.15;;
5971;SDS011;3012;49.944;8.454;2024-03-23T09:28:14;7.80;;;2.10;;
5971;SDS011;3012;49.944;8.454;2024-03-23T09:32:10;3.95;;;1.80;;
5971;SDS011;3012;49.944;8.454;2024-03-23T09:34:39;11.07;;;2.20;;
5971;SDS011;3012;49.944;8.454;2024-03-23T09:37:05;7.72;;;2.60;;
5971;SDS011;3012;49.944;8.454;2024-03-23T09:39:41;12.77;;;2.35;;
5971;SDS011;3012;49.944;8.454;2024-03-23T09:42:07;4.68;;;1.65;;
5971;SDS011;3012;49.944;8.454;2024-03-23T09:44:35;13.35;;;1.98;;
5971;SDS011;3012;49.944;8.454;2024-03-23T09:47:05;3.90;;;1.38;;
5971;SDS011;3012;49.944;8.454;2024-03-23T09:49:58;6.57;;;1.60;;
5971;SDS011;3012;49.944;8.454;2024-03-23T09:52:30;6.93;;;1.90;;
5971;SDS011;3012;49.944;8.454;2024-03-23T09:55:06;9.65;;;1.73;;
5971;SDS011;3012;49.944;8.454;2024-03-23T09:58:17;7.60;;;1.42;;
5971;SDS011;3012;49.944;8.454;2024-03-23T10:00:49;5.28;;;1.63;;
5971;SDS011;3012;49.944;8.454;2024-03-23T10:03:43;5.47;;;1.25;;
5971;SDS011;3012;49.944;8.454;2024-03-23T10:06:13;5.78;;;1.83;;
5971;SDS011;3012;49.944;8.454;2024-03-23T10:08:39;3.53;;;1.00;;
5971;SDS011;3012;49.944;8.454;2024-03-23T10:11:13;3.22;;;1.10;;
5971;SDS011;3012;49.944;8.454;2024-03-23T10:14:28;6.20;;;1.33;;
5971;SDS011;3012;49.944;8.454;2024-03-23T10:16:59;5.50;;;1.02;;
5971;SDS011;3012;49.944;8.454;2024-03-23T10:19:55;8.82;;;1.80;;
5971;SDS011;3012;49.944;8.454;2024-03-23T10:22:36;5.88;;;1.08;;
5971;SDS011;3012;49.944;8.454;2024-03-23T10:25:06;8.50;;;1.50;;
5971;SDS011;3012;49.944;8.454;2024-03-23T10:27:34;7.45;;;1.38;;
5971;SDS011;3012;49.944;8.454;2024-03-23T10:30:08;7.53;;;1.48;;
5971;SDS011;3012;49.944;8.454;2024-03-23T10:32:43;4.93;;;1.10;;
5971;SDS011;3012;49.944;8.454;2024-03-23T10:35:19;4.82;;;1.35;;
5971;SDS011;3012;49.944;8.454;2024-03-23T10:37:57;1.63;;;0.57;;
5971;SDS011;3012;49.944;8.454;2024-03-23T10:40:23;5.25;;;1.05;;
5971;SDS011;3012;49.944;8.454;2024-03-23T10:42:55;2.38;;;0.52;;
5971;SDS011;3012;49.944;8.454;2024-03-23T10:45:32;1.15;;;0.55;;
5971;SDS011;3012;49.944;8.454;2024-03-23T10:48:07;2.80;;;0.63;;
5971;SDS011;3012;49.944;8.454;2024-03-23T10:50:33;3.30;;;0.70;;
5971;SDS011;3012;49.944;8.454;2024-03-23T10:53:03;2.20;;;0.52;;
5971;SDS011;3012;49.944;8.454;2024-03-23T10:55:31;5.82;;;0.90;;
5971;SDS011;3012;49.944;8.454;2024-03-23T10:58:09;8.98;;;0.88;;
5971;SDS011;3012;49.944;8.454;2024-03-23T11:00:37;1.30;;;1.17;;
5971;SDS011;3012;49.944;8.454;2024-03-23T11:06:44;2.30;;;0.87;;
5971;SDS011;3012;49.944;8.454;2024-03-23T11:15:34;1.63;;;1.17;;
5971;SDS011;3012;49.944;8.454;2024-03-23T11:18:05;8.60;;;1.70;;
5971;SDS011;3012;49.944;8.454;2024-03-23T11:20:37;2.23;;;1.13;;
5971;SDS011;3012;49.944;8.454;2024-03-23T11:23:05;1.33;;;0.93;;
5971;SDS011;3012;49.944;8.454;2024-03-23T11:25:34;2.10;;;0.90;;
5971;SDS011;3012;49.944;8.454;2024-03-23T11:28:09;1.80;;;0.43;;
5971;SDS011;3012;49.944;8.454;2024-03-23T11:30:38;3.67;;;0.77;;
5971;SDS011;3012;49.944;8.454;2024-03-23T11:33:27;2.40;;;0.60;;
5971;SDS011;3012;49.944;8.454;2024-03-23T11:35:56;4.13;;;0.68;;
5971;SDS011;3012;49.944;8.454;2024-03-23T11:38:24;0.60;;;0.30;;
5971;SDS011;3012;49.944;8.454;2024-03-23T11:40:57;0.10;;;0.10;;
5971;SDS011;3012;49.944;8.454;2024-03-23T11:43:30;3.10;;;0.30;;
5971;SDS011;3012;49.944;8.454;2024-03-23T11:48:55;0.20;;;0.20;;
5971;SDS011;3012;49.944;8.454;2024-03-23T11:51:23;1.63;;;0.20;;
5971;SDS011;3012;49.944;8.454;2024-03-23T11:53:49;2.30;;;0.30;;
5971;SDS011;3012;49.944;8.454;2024-03-23T11:56:18;2.70;;;0.60;;
5971;SDS011;3012;49.944;8.454;2024-03-23T11:58:46;0.82;;;0.70;;
5971;SDS011;3012;49.944;8.454;2024-03-23T12:01:14;5.13;;;1.10;;
5971;SDS011;3012;49.944;8.454;2024-03-23T12:03:43;4.82;;;1.10;;
5971;SDS011;3012;49.944;8.454;2024-03-23T12:06:11;3.50;;;0.98;;
5971;SDS011;3012;49.944;8.454;2024-03-23T12:08:41;4.65;;;1.27;;
5971;SDS011;3012;49.944;8.454;2024-03-23T12:11:11;2.75;;;0.77;;
5971;SDS011;3012;49.944;8.454;2024-03-23T12:13:44;6.68;;;1.00;;
5971;SDS011;3012;49.944;8.454;2024-03-23T12:16:16;5.45;;;0.98;;
5971;SDS011;3012;49.944;8.454;2024-03-23T12:18:46;3.90;;;1.00;;
5971;SDS011;3012;49.944;8.454;2024-03-23T12:21:15;2.38;;;1.25;;
5971;SDS011;3012;49.944;8.454;2024-03-23T12:23:42;1.15;;;0.88;;
5971;SDS011;3012;49.944;8.454;2024-03-23T12:26:14;2.47;;;1.02;;
5971;SDS011;3012;49.944;8.454;2024-03-23T12:31:49;2.65;;;0.73;;
5971;SDS011;3012;49.944;8.454;2024-03-23T12:34:29;4.53;;;0.57;;
5971;SDS011;3012;49.944;8.454;2024-03-23T12:36:58;3.80;;;0.88;;
5971;SDS011;3012;49.944;8.454;2024-03-23T12:39:31;2.15;;;0.63;;
5971;SDS011;3012;49.944;8.454;2024-03-23T12:42:00;1.80;;;0.40;;
5971;SDS011;3012;49.944;8.454;2024-03-23T12:47:43;4.53;;;1.20;;
5971;SDS011;3012;49.944;8.454;2024-03-23T12:50:12;2.38;;;0.80;;
5971;SDS011;3012;49.944;8.454;2024-03-23T12:52:45;4.25;;;1.35;;
5971;SDS011;3012;49.944;8.454;2024-03-23T12:55:31;4.65;;;1.25;;
5971;SDS011;3012;49.944;8.454;2024-03-23T12:58:01;4.22;;;1.33;;
5971;SDS011;3012;49.944;8.454;2024-03-23T13:00:30;4.50;;;1.67;;
5971;SDS011;3012;49.944;8.454;2024-03-23T13:02:58;2.38;;;0.70;;
5971;SDS011;3012;49.944;8.454;2024-03-23T13:05:24;2.28;;;0.30;;
5971;SDS011;3012;49.944;8.454;2024-03-23T13:07:54;2.03;;;0.22;;
5971;SDS011;3012;49.944;8.454;2024-03-23T13:10:38;5.05;;;1.20;;
5971;SDS011;3012;49.944;8.454;2024-03-23T13:13:05;0.85;;;0.85;;
5971;SDS011;3012;49.944;8.454;2024-03-23T13:15:35;1.95;;;0.40;;
5971;SDS011;3012;49.944;8.454;2024-03-23T13:21:01;1.95;;;1.77;;
5971;SDS011;3012;49.944;8.454;2024-03-23T13:23:30;1.15;;;1.13;;
5971;SDS011;3012;49.944;8.454;2024-03-23T13:26:17;2.28;;;1.10;;
5971;SDS011;3012;49.944;8.454;2024-03-23T13:28:56;2.10;;;0.35;;
5971;SDS011;3012;49.944;8.454;2024-03-23T13:31:24;1.85;;;0.30;;
5971;SDS011;3012;49.944;8.454;2024-03-23T13:33:52;0.55;;;0.10;;
5971;SDS011;3012;49.944;8.454;2024-03-23T13:36:20;1.15;;;0.10;;
5971;SDS011;3012;49.944;8.454;2024-03-23T13:39:31;0.03;;;0.03;;
5971;SDS011;3012;49.944;8.454;2024-03-23T13:41:58;0.75;;;0.30;;
5971;SDS011;3012;49.944;8.454;2024-03-23T13:44:28;0.55;;;0.10;;
5971;SDS011;3012;49.944;8.454;2024-03-23T13:47:20;2.47;;;0.10;;
5971;SDS011;3012;49.944;8.454;2024-03-23T13:49:47;0.63;;;0.20;;
5971;SDS011;3012;49.944;8.454;2024-03-23T13:52:24;0.30;;;0.20;;
5971;SDS011;3012;49.944;8.454;2024-03-23T13:55:03;0.20;;;0.20;;
5971;SDS011;3012;49.944;8.454;2024-03-23T13:57:36;1.50;;;0.30;;
5971;SDS011;3012;49.944;8.454;2024-03-23T14:00:08;0.30;;;0.20;;
5971;SDS011;3012;49.944;8.454;2024-03-23T14:02:37;0.82;;;0.10;;
5971;SDS011;3012;49.944;8.454;2024-03-23T14:05:11;0.60;;;0.13;;
5971;SDS011;3012;49.944;8.454;2024-03-23T14:07:39;1.30;;;0.15;;
5971;SDS011;3012;49.944;8.454;2024-03-23T14:10:12;0.10;;;0.10;;
5971;SDS011;3012;49.944;8.454;2024-03-23T14:12:41;2.50;;;0.20;;
5971;SDS011;3012;49.944;8.454;2024-03-23T14:15:20;0.52;;;0.13;;
5971;SDS011;3012;49.944;8.454;2024-03-23T14:17:48;1.30;;;0.13;;
5971;SDS011;3012;49.944;8.454;2024-03-23T14:20:15;1.38;;;0.10;;
5971;SDS011;3012;49.944;8.454;2024-03-23T14:22:53;0.20;;;0.20;;
5971;SDS011;3012;49.944;8.454;2024-03-23T14:25:23;3.33;;;0.40;;
5971;SDS011;3012;49.944;8.454;2024-03-23T14:27:52;1.95;;;0.20;;
5971;SDS011;3012;49.944;8.454;2024-03-23T14:30:20;2.83;;;0.40;;
5971;SDS011;3012;49.944;8.454;2024-03-23T14:32:49;1.25;;;0.38;;
5971;SDS011;3012;49.944;8.454;2024-03-23T14:35:36;1.67;;;0.50;;
5971;SDS011;3012;49.944;8.454;2024-03-23T14:38:05;0.55;;;0.43;;
5971;SDS011;3012;49.944;8.454;2024-03-23T14:43:45;4.30;;;0.32;;
5971;SDS011;3012;49.944;8.454;2024-03-23T14:46:21;1.08;;;0.10;;
5971;SDS011;3012;49.944;8.454;2024-03-23T14:48:48;2.40;;;0.22;;
5971;SDS011;3012;49.944;8.454;2024-03-23T14:51:15;0.65;;;0.20;;
5971;SDS011;3012;49.944;8.454;2024-03-23T14:53:45;1.40;;;0.30;;
5971;SDS011;3012;49.944;8.454;2024-03-23T14:56:15;1.02;;;0.25;;
5971;SDS011;3012;49.944;8.454;2024-03-23T14:58:42;0.17;;;0.10;;
5971;SDS011;3012;49.944;8.454;2024-03-23T15:01:13;2.15;;;0.17;;
5971;SDS011;3012;49.944;8.454;2024-03-23T15:03:53;0.82;;;0.17;;
5971;SDS011;3012;49.944;8.454;2024-03-23T15:06:25;0.20;;;0.10;;
5971;SDS011;3012;49.944;8.454;2024-03-23T15:08:53;0.85;;;0.20;;
5971;SDS011;3012;49.944;8.454;2024-03-23T15:11:24;1.30;;;0.20;;
5971;SDS011;3012;49.944;8.454;2024-03-23T15:13:52;1.10;;;0.40;;
5971;SDS011;3012;49.944;8.454;2024-03-23T15:16:27;2.08;;;0.77;;
5971;SDS011;3012;49.944;8.454;2024-03-23T15:19:30;2.50;;;0.68;;
5971;SDS011;3012;49.944;8.454;2024-03-23T15:22:00;3.60;;;0.40;;
5971;SDS011;3012;49.944;8.454;2024-03-23T15:24:28;1.33;;;0.30;;
5971;SDS011;3012;49.944;8.454;2024-03-23T15:27:03;0.63;;;0.60;;
5971;SDS011;3012;49.944;8.454;2024-03-23T15:29:33;0.60;;;0.60;;
5971;SDS011;3012;49.944;8.454;2024-03-23T15:32:02;2.38;;;0.17;;
5971;SDS011;3012;49.944;8.454;2024-03-23T15:34:28;2.38;;;0.30;;
5971;SDS011;3012;49.944;8.454;2024-03-23T15:36:57;1.77;;;1.63;;
5971;SDS011;3012;49.944;8.454;2024-03-23T15:39:26;2.35;;;0.63;;
5971;SDS011;3012;49.944;8.454;2024-03-23T15:41:54;1.70;;;0.32;;
5971;SDS011;3012;49.944;8.454;2024-03-23T15:44:30;0.80;;;0.40;;
5971;SDS011;3012;49.944;8.454;2024-03-23T15:47:01;1.52;;;0.25;;
5971;SDS011;3012;49.944;8.454;2024-03-23T15:49:36;1.02;;;0.40;;
5971;SDS011;3012;49.944;8.454;2024-03-23T15:52:06;2.42;;;0.20;;
5971;SDS011;3012;49.944;8.454;2024-03-23T15:54:33;1.95;;;0.35;;
5971;SDS011;3012;49.944;8.454;2024-03-23T15:57:33;3.00;;;0.40;;
5971;SDS011;3012;49.944;8.454;2024-03-23T16:00:05;2.50;;;0.40;;
5971;SDS011;3012;49.944;8.454;2024-03-23T16:02:56;0.63;;;0.60;;
5971;SDS011;3012;49.944;8.454;2024-03-23T16:05:24;1.10;;;0.32;;
5971;SDS011;3012;49.944;8.454;2024-03-23T16:08:24;0.38;;;0.30;;
5971;SDS011;3012;49.944;8.454;2024-03-23T16:10:52;0.90;;;0.35;;
5971;SDS011;3012;49.944;8.454;2024-03-23T16:13:21;3.15;;;0.35;;
5971;SDS011;3012;49.944;8.454;2024-03-23T16:15:55;1.48;;;0.20;;
5971;SDS011;3012;49.944;8.454;2024-03-23T16:18:22;1.25;;;0.30;;
5971;SDS011;3012;49.944;8.454;2024-03-23T16:20:54;1.05;;;0.15;;
5971;SDS011;3012;49.944;8.454;2024-03-23T16:23:23;0.30;;;0.15;;
5971;SDS011;3012;49.944;8.454;2024-03-23T16:25:52;2.72;;;0.38;;
5971;SDS011;3012;49.944;8.454;2024-03-23T16:28:24;0.95;;;0.40;;
5971;SDS011;3012;49.944;8.454;2024-03-23T16:31:00;1.75;;;0.40;;
5971;SDS011;3012;49.944;8.454;2024-03-23T16:33:33;1.77;;;0.70;;
5971;SDS011;3012;49.944;8.454;2024-03-23T16:36:04;1.00;;;0.95;;
5971;SDS011;3012;49.944;8.454;2024-03-23T16:38:33;1.30;;;0.30;;
5971;SDS011;3012;49.944;8.454;2024-03-23T16:41:02;0.88;;;0.82;;
5971;SDS011;3012;49.944;8.454;2024-03-23T16:43:31;2.10;;;0.50;;
5971;SDS011;3012;49.944;8.454;2024-03-23T16:46:26;1.08;;;0.68;;
5971;SDS011;3012;49.944;8.454;2024-03-23T16:48:53;0.32;;;0.32;;
5971;SDS011;3012;49.944;8.454;2024-03-23T16:51:22;5.15;;;0.50;;
5971;SDS011;3012;49.944;8.454;2024-03-23T16:54:00;3.40;;;1.23;;
5971;SDS011;3012;49.944;8.454;2024-03-23T16:56:28;0.47;;;0.40;;
5971;SDS011;3012;49.944;8.454;2024-03-23T16:58:58;1.65;;;0.50;;
5971;SDS011;3012;49.944;8.454;2024-03-23T17:01:27;2.05;;;0.75;;
5971;SDS011;3012;49.944;8.454;2024-03-23T17:04:02;0.95;;;0.30;;
5971;SDS011;3012;49.944;8.454;2024-03-23T17:06:44;1.77;;;0.55;;
5971;SDS011;3012;49.944;8.454;2024-03-23T17:09:10;1.17;;;0.30;;
5971;SDS011;3012;49.944;8.454;2024-03-23T17:11:40;2.63;;;0.60;;
5971;SDS011;3012;49.944;8.454;2024-03-23T17:14:23;1.70;;;0.52;;
5971;SDS011;3012;49.944;8.454;2024-03-23T17:16:53;3.25;;;0.68;;
5971;SDS011;3012;49.944;8.454;2024-03-23T17:19:19;2.92;;;0.98;;
5971;SDS011;3012;49.944;8.454;2024-03-23T17:22:21;3.33;;;0.60;;
5971;SDS011;3012;49.944;8.454;2024-03-23T17:24:51;0.57;;;0.50;;
5971;SDS011;3012;49.944;8.454;2024-03-23T17:27:36;0.80;;;0.47;;
5971;SDS011;3012;49.944;8.454;2024-03-23T17:30:07;4.78;;;1.08;;
5971;SDS011;3012;49.944;8.454;2024-03-23T17:32:43;3.92;;;0.82;;
5971;SDS011;3012;49.944;8.454;2024-03-23T17:35:11;2.63;;;0.95;;
5971;SDS011;3012;49.944;8.454;2024-03-23T17:37:48;4.32;;;0.93;;
5971;SDS011;3012;49.944;8.454;2024-03-23T17:40:16;4.63;;;1.95;;
5971;SDS011;3012;49.944;8.454;2024-03-23T17:42:45;1.37;;;1.27;;
5971;SDS011;3012;49.944;8.454;2024-03-23T17:45:29;5.78;;;1.35;;
5971;SDS011;3012;49.944;8.454;2024-03-23T17:47:57;2.87;;;1.00;;
5971;SDS011;3012;49.944;8.454;2024-03-23T17:50:26;4.30;;;1.00;;
5971;SDS011;3012;49.944;8.454;2024-03-23T17:53:09;1.43;;;1.33;;
5971;SDS011;3012;49.944;8.454;2024-03-23T17:55:42;1.20;;;0.90;;
5971;SDS011;3012;49.944;8.454;2024-03-23T17:58:34;3.57;;;1.53;;
5971;SDS011;3012;49.944;8.454;2024-03-23T18:01:24;3.57;;;1.03;;
5971;SDS011;3012;49.944;8.454;2024-03-23T18:03:52;6.90;;;1.20;;